Flight Track Log - Related Links

Times and Time Zones

All times are in EDT time to prevent confusion due to time zone crossing. See the ASQ6041 flight status page for this flight to view local times or setup timezone preferences in your user account.

Time Position Orientation Groundspeed Altitude Reporting Facility
EDT Latitude Longitude Course Direction KTS MPH feet Rate Location/Type
Sun 02:06:51 PM 40.8844 -96.8239 301° West 193 222 4,200  Level Minneapolis Center
Sun 02:07:14 PM 40.8953 -96.8447 305° West 229 264 4,300 2,500 Climbing Minneapolis Center
Sun 02:08:15 PM 40.8753 -96.9503 256° West 245 282 7,700 3,024 Climbing Minneapolis Center
Sun 02:09:17 PM 40.8594 -97.0358 256° West 242 278 10,500 1,742 Climbing Minneapolis Center
Sun 02:10:19 PM 40.8417 -97.1378 257° West 279 321 11,300 1,268 Climbing Minneapolis Center
Sun 02:11:20 PM 40.8217 -97.2539 257° West 316 364 13,100 2,000 Climbing Minneapolis Center
Sun 02:12:22 PM 40.8003 -97.3686 256° West 322 371 15,400 1,951 Climbing Minneapolis Center
Sun 02:13:23 PM 40.7814 -97.4767 257° West 320 368 17,100 1,951 Climbing Minneapolis Center
Sun 02:14:25 PM 40.7564 -97.6169 257° West 324 373 19,400 1,805 Climbing Minneapolis Center
Sun 02:15:26 PM 40.7339 -97.7389 256° West 336 387 20,800 1,366 Climbing Minneapolis Center
Sun 02:16:28 PM 40.7103 -97.8642 256° West 346 398 22,200 1,452 Climbing Minneapolis Center
Sun 02:17:30 PM 40.6875 -97.9903 257° West 351 404 23,800 1,415 Climbing Minneapolis Center
Sun 02:18:31 PM 40.6681 -98.0894 256° West 350 403 25,100 1,561 Climbing Minneapolis Center
Sun 02:19:33 PM 40.6408 -98.2358 256° West 345 397 27,000 1,707 Climbing Minneapolis Center
Sun 02:20:34 PM 40.6181 -98.3542 256° West 336 387 28,600 1,561 Climbing Minneapolis Center
Sun 02:21:36 PM 40.6092 -98.4717 264° West 333 383 30,200 1,548 Climbing Minneapolis Center
Sun 02:22:38 PM 40.6197 -98.5933 277° West 334 384 31,800 878 Climbing Minneapolis Center
Sun 02:23:39 PM 40.6306 -98.7161 277° West 334 384 32,000 98 Climbing Minneapolis Center
Sun 02:24:41 PM 40.6447 -98.8814 276° West 356 410 32,000  Level Minneapolis Center
Sun 02:25:42 PM 40.6575 -99.0278 277° West 378 435 32,000  Level Minneapolis Center
Sun 02:26:44 PM 40.6714 -99.1731 277° West 391 450 32,000  Level Minneapolis Center
Sun 02:27:09 PM 40.6750 -99.2311 275° West 395 455 32,000  Level Denver Center
Sun 02:28:11 PM 40.6872 -99.3736 276° West 392 451 32,000  Level Denver Center
Sun 02:29:12 PM 40.7039 -99.5156 279° West 390 449 32,000  Level Denver Center
Sun 02:30:14 PM 40.7731 -99.6281 309° West 389 448 32,000  Level Denver Center
Sun 02:31:16 PM 40.8450 -99.7375 311° West 392 451 32,000  Level Denver Center
Sun 02:32:18 PM 40.9256 -99.8625 310° West 400 460 32,000  Level Denver Center
Sun 02:33:20 PM 40.9936 -99.9703 310° West 400 460 32,000  Level Denver Center
Sun 02:34:21 PM 41.0725 -100.0936 310° West 397 457 32,000  Level Denver Center
Sun 02:35:23 PM 41.1397 -100.1992 310° West 394 453 32,000  Level Denver Center
Sun 02:36:25 PM 41.2200 -100.3264 310° West 402 463 32,000  Level Denver Center
Sun 02:37:27 PM 41.2581 -100.4517 292° West 390 449 32,000  Level Denver Center
Sun 02:38:29 PM 41.2175 -100.5908 249° West 372 428 32,000  Level Denver Center
Sun 02:39:30 PM 41.1350 -100.6656 214° Southwest 378 435 32,000  Level Denver Center
Sun 02:40:32 PM 41.0339 -100.7453 211° Southwest 380 437 32,000  Level Denver Center
Sun 02:41:34 PM 40.9478 -100.8119 210° Southwest 379 436 32,000  Level Denver Center
Sun 02:42:36 PM 40.8492 -100.8875 210° Southwest 375 432 32,000  Level Denver Center
Sun 02:43:38 PM 40.7658 -100.9603 213° Southwest 384 442 32,000  Level Denver Center
Sun 02:44:39 PM 40.7311 -101.1017 252° West 369 425 32,000  Level Denver Center
Sun 02:45:41 PM 40.7083 -101.2283 257° West 370 426 32,000  Level Denver Center
Sun 02:46:43 PM 40.6814 -101.3772 257° West 373 429 32,000  Level Denver Center
Sun 02:47:45 PM 40.6583 -101.5028 256° West 369 425 32,000  Level Denver Center
Sun 02:48:47 PM 40.6314 -101.6489 256° West 368 423 32,000  Level Denver Center
Sun 02:49:49 PM 40.6081 -101.7747 256° West 369 425 32,000  Level Denver Center
Sun 02:50:50 PM 40.5850 -101.9006 256° West 369 425 32,000  Level Denver Center
Sun 02:51:52 PM 40.5569 -102.0467 256° West 370 426 32,000  Level Denver Center
Sun 02:52:54 PM 40.5347 -102.1722 257° West 369 425 32,000  Level Denver Center
Sun 02:53:56 PM 40.5069 -102.3175 256° West 367 422 32,000 -662 Level Denver Center
Sun 02:55:10 PM 40.4739 -102.4831 255° West 367 422 30,500 -1,279 Descending Denver Center
Sun 02:56:12 PM 40.4497 -102.6053 255° West 362 417 29,100 -1,403 Descending Denver Center
Sun 02:57:14 PM 40.4233 -102.7458 256° West 367 422 27,600 -1,415 Descending Denver Center
Sun 02:58:15 PM 40.3992 -102.8778 257° West 369 425 26,200 -1,366 Descending Denver Center
Sun 02:59:17 PM 40.3733 -103.0061 255° West 363 418 24,800 -1,355 Descending Denver Center
Sun 03:00:19 PM 40.3475 -103.1278 254° West 347 399 23,400 -1,403 Descending Denver Center
Sun 03:01:21 PM 40.3222 -103.2514 255° West 347 399 21,900 -1,403 Descending Denver Center
Sun 03:02:23 PM 40.2975 -103.3750 255° West 351 404 20,500 -1,220 Descending Denver Center
Sun 03:03:24 PM 40.2725 -103.4983 255° West 348 400 19,400 -1,024 Descending Denver Center
Sun 03:04:26 PM 40.2481 -103.6206 255° West 345 397 18,400 -1,210 Descending Denver Center
Sun 03:05:28 PM 40.2208 -103.7583 256° West 350 403 16,900 -1,210 Descending Denver Center
Sun 03:06:30 PM 40.1925 -103.8703 252° West 323 372 15,900 -968 Descending Denver Center
Sun 03:07:32 PM 40.1447 -103.9822 241° Southwest 326 375 14,900 -1,024 Descending Denver Center
Sun 03:08:33 PM 40.1328 -104.0828 261° West 277 319 13,800 -927 Descending Denver Center
Sun 03:09:35 PM 40.0978 -104.1469 235° Southwest 248 285 13,000 -387 Descending Denver Center
Sun 03:10:37 PM 40.0292 -104.1489 181° South 227 261 13,000 -242 Level Denver Center
Sun 03:11:39 PM 39.9736 -104.1628 191° South 209 241 12,500 -823 Descending Denver Center
Sun 03:12:41 PM 39.9281 -104.1939 208° Southwest 187 215 11,300 -1,113 Descending Denver Center
Sun 03:13:43 PM 39.8967 -104.2464 232° Southwest 172 198 10,200 -629 Descending Denver Center
Sun 03:14:45 PM 39.8725 -104.2983 239° Southwest 172 198 10,000 -435 Descending Denver Center
Sun 03:15:47 PM 39.8744 -104.3586 272° West 167 192 9,300 -830 Descending Denver Center
Sun 03:16:19 PM 39.8833 -104.4000 286° West 156 180 8,700 -837 Descending Denver TRACON
Sun 03:17:13 PM 39.8833 -104.4333 270° West 141 162 8,100 -737 Descending Denver TRACON
Sun 03:18:13 PM 39.8833 -104.4833 270° West 132 152 7,300 -750 Descending Denver TRACON
Sun 03:19:13 PM 39.8833 -104.5333 270° West 135 155 6,600 -730 Descending Denver TRACON
Sun 03:20:08 PM 39.8833 -104.5833 270° West 132 152 5,900 -470 Descending Denver TRACON
Sun 03:21:59 PM 39.8772 -104.6458 263° West 104 120 5,300 -324 Descending Denver Center
Sun 03:23:00 PM 39.8617 -104.6732 166° South  Level Estimated
Sun 03:30:00 PM 39.8617 -104.6732 North  Level Estimated
Sun 03:31:00 PM 39.8617 -104.6732 North  Level Estimated

Login

Don't have an account? Register now (free) for customized features, flight alerts, and more!